createdAt,value
2023-01-05T00:00:42.964Z,3.77
2023-01-05T00:04:44.943Z,2.70
2023-01-05T00:08:46.798Z,3.07
2023-01-05T00:13:06.550Z,4.20
2023-01-05T00:17:30.216Z,4.00
2023-01-05T00:21:49.952Z,2.83
2023-01-05T00:25:51.021Z,2.90
2023-01-05T00:29:52.184Z,3.67
2023-01-05T00:33:53.330Z,2.90
2023-01-05T00:37:54.797Z,2.80
2023-01-05T00:41:55.985Z,2.30
2023-01-05T00:45:57.270Z,3.37
2023-01-05T00:49:58.503Z,2.60
2023-01-05T00:53:59.657Z,3.10
2023-01-05T00:58:00.878Z,2.90
2023-01-05T01:02:02.326Z,2.57
2023-01-05T01:06:04.053Z,3.43
2023-01-05T01:10:06.484Z,2.50
2023-01-05T01:14:09.624Z,1.97
2023-01-05T01:18:10.869Z,2.30
2023-01-05T01:22:12.517Z,2.20
2023-01-05T01:26:14.265Z,2.50
2023-01-05T01:30:15.589Z,2.80
2023-01-05T01:34:16.932Z,2.40
2023-01-05T01:38:18.129Z,2.60
2023-01-05T01:42:20.677Z,2.23
2023-01-05T01:46:23.367Z,2.30
2023-01-05T01:50:33.528Z,2.10
2023-01-05T01:54:34.871Z,2.13
2023-01-05T01:58:37.825Z,3.23
2023-01-05T02:02:39.040Z,2.30
2023-01-05T02:06:40.263Z,2.53
2023-01-05T02:11:08.013Z,2.17
2023-01-05T02:15:30.882Z,3.90
2023-01-05T02:19:44.581Z,2.37
2023-01-05T02:24:15.643Z,2.70
2023-01-05T02:28:29.200Z,2.30
2023-01-05T02:32:37.155Z,2.60
2023-01-05T02:36:57.397Z,3.47
2023-01-05T02:41:02.344Z,2.30
2023-01-05T02:45:05.770Z,2.30
2023-01-05T02:49:07.320Z,3.23
2023-01-05T02:53:24.123Z,2.67
2023-01-05T02:57:46.553Z,4.27
2023-01-05T03:01:51.697Z,3.20
2023-01-05T03:05:56.442Z,5.50
2023-01-05T03:09:59.572Z,3.60
2023-01-05T03:14:04.666Z,7.00
2023-01-05T03:18:09.028Z,3.57
2023-01-05T03:22:35.907Z,10.53
2023-01-05T03:26:57.613Z,5.90
2023-01-05T03:31:26.559Z,4.67
2023-01-05T03:35:33.046Z,4.30
2023-01-05T03:39:37.914Z,9.50
2023-01-05T03:43:41.280Z,5.10
2023-01-05T03:47:42.440Z,7.93
2023-01-05T03:51:43.589Z,6.70
2023-01-05T03:55:45.022Z,8.30
2023-01-05T03:59:46.158Z,6.13
2023-01-05T04:03:47.515Z,8.47
2023-01-05T04:07:48.668Z,5.00
2023-01-05T04:11:49.825Z,9.50
2023-01-05T04:15:51.063Z,11.40
2023-01-05T04:19:52.210Z,11.53
2023-01-05T04:23:53.379Z,12.30
2023-01-05T04:27:54.543Z,9.93
2023-01-05T04:31:55.689Z,12.00
2023-01-05T04:35:56.781Z,10.03
2023-01-05T04:39:57.925Z,10.40
2023-01-05T04:43:59.114Z,10.37
2023-01-05T04:48:00.262Z,9.80
2023-01-05T04:52:01.533Z,15.30
2023-01-05T04:56:02.706Z,12.13
2023-01-05T05:00:05.073Z,12.37
2023-01-05T05:04:06.247Z,14.53
2023-01-05T05:08:07.538Z,12.57
2023-01-05T05:12:08.695Z,9.47
2023-01-05T05:16:09.865Z,14.77
2023-01-05T05:20:11.397Z,13.00
2023-01-05T05:24:12.558Z,9.70
2023-01-05T05:28:13.716Z,8.10
2023-01-05T05:32:14.875Z,6.27
2023-01-05T05:36:17.226Z,6.83
2023-01-05T05:40:18.365Z,10.60
2023-01-05T05:44:19.535Z,12.43
2023-01-05T05:48:20.709Z,11.90
2023-01-05T05:52:21.789Z,10.33
2023-01-05T05:56:22.937Z,8.90
2023-01-05T06:00:25.367Z,10.50
2023-01-05T06:04:26.777Z,11.60
2023-01-05T06:08:29.089Z,10.17
2023-01-05T06:12:30.195Z,8.33
2023-01-05T06:16:31.639Z,14.73
2023-01-05T06:20:32.829Z,9.47
2023-01-05T06:24:34.001Z,14.43
2023-01-05T06:28:35.133Z,6.07
2023-01-05T06:32:36.253Z,9.37
2023-01-05T06:36:37.400Z,12.23
2023-01-05T06:40:40.074Z,11.90
2023-01-05T06:44:42.005Z,8.80
2023-01-05T06:48:43.162Z,13.20
2023-01-05T06:52:44.396Z,7.67
2023-01-05T06:56:45.479Z,11.00
2023-01-05T07:00:46.637Z,7.50
2023-01-05T07:04:47.953Z,9.73
2023-01-05T07:08:49.172Z,8.93
2023-01-05T07:12:50.332Z,8.07
2023-01-05T07:16:51.507Z,11.03
2023-01-05T07:20:52.751Z,11.37
2023-01-05T07:24:54.011Z,8.87
2023-01-05T07:28:55.566Z,9.13
2023-01-05T07:32:58.109Z,11.90
2023-01-05T07:36:59.334Z,8.70
2023-01-05T07:41:01.381Z,9.03
2023-01-05T07:45:02.822Z,9.63
2023-01-05T07:49:03.973Z,8.27
2023-01-05T07:53:05.127Z,6.83
2023-01-05T07:57:06.282Z,5.97
2023-01-05T08:01:10.224Z,12.20
2023-01-05T08:05:11.413Z,5.97
2023-01-05T08:09:31.042Z,6.73
2023-01-05T08:13:51.045Z,7.20
2023-01-05T08:17:52.175Z,7.07
2023-01-05T08:21:53.323Z,4.90
2023-01-05T08:25:54.981Z,5.50
2023-01-05T08:29:56.224Z,7.90
2023-01-05T08:33:59.239Z,5.80
2023-01-05T08:38:00.380Z,10.27
2023-01-05T08:42:02.956Z,10.10
2023-01-05T08:46:04.626Z,10.20
2023-01-05T08:50:08.680Z,11.80
2023-01-05T08:54:11.700Z,7.93
2023-01-05T08:58:12.856Z,11.87
2023-01-05T09:02:14.511Z,9.23
2023-01-05T09:06:16.898Z,12.27
2023-01-05T09:10:18.040Z,9.20
2023-01-05T09:14:19.282Z,7.10
2023-01-05T09:18:20.441Z,12.90
2023-01-05T09:22:21.698Z,13.43
2023-01-05T09:26:22.919Z,13.00
2023-01-05T09:30:24.052Z,7.13
2023-01-05T09:34:25.253Z,13.53
2023-01-05T09:38:26.566Z,10.90
2023-01-05T09:42:30.645Z,9.27
2023-01-05T09:46:38.435Z,10.13
2023-01-05T09:50:39.633Z,12.10
2023-01-05T09:54:40.825Z,12.60
2023-01-05T09:58:44.970Z,9.20
2023-01-05T10:03:08.306Z,12.30
2023-01-05T10:07:16.239Z,8.73
2023-01-05T10:11:39.483Z,7.13
2023-01-05T10:15:50.543Z,7.47
2023-01-05T10:19:52.180Z,8.33
2023-01-05T10:24:15.455Z,12.23
2023-01-05T10:28:23.379Z,12.20
2023-01-05T10:32:47.595Z,8.20
2023-01-05T10:37:07.854Z,6.97
2023-01-05T10:41:23.568Z,9.67
2023-01-05T10:45:27.789Z,13.80
2023-01-05T10:49:31.560Z,8.10
2023-01-05T10:53:40.343Z,13.90
2023-01-05T10:57:42.220Z,9.97
2023-01-05T11:01:46.761Z,12.53
2023-01-05T11:05:48.642Z,21.20
2023-01-05T11:09:50.001Z,15.97
2023-01-05T11:13:58.215Z,13.57
2023-01-05T11:17:59.683Z,9.90
2023-01-05T11:22:02.384Z,11.33
2023-01-05T11:26:13.837Z,14.50
2023-01-05T11:30:19.533Z,14.33
2023-01-05T11:34:33.630Z,8.07
2023-01-05T11:38:34.896Z,8.57
2023-01-05T11:42:38.049Z,13.70
2023-01-05T11:46:41.963Z,13.90
2023-01-05T11:50:46.206Z,9.17
2023-01-05T11:54:47.488Z,13.70
2023-01-05T11:58:51.335Z,14.60
2023-01-05T12:03:20.363Z,21.07
2023-01-05T12:07:31.603Z,12.90
2023-01-05T12:11:42.372Z,14.97
2023-01-05T12:15:50.055Z,14.60
2023-01-05T12:19:57.832Z,15.20
2023-01-05T12:24:05.860Z,16.00
2023-01-05T12:28:39.471Z,11.00
2023-01-05T12:37:00.066Z,11.80
2023-01-05T12:41:24.461Z,9.80
2023-01-05T12:45:50.293Z,11.23
2023-01-05T12:50:04.143Z,13.53
2023-01-05T12:54:39.246Z,14.93
2023-01-05T12:58:47.851Z,9.17
2023-01-05T13:03:06.401Z,13.07
2023-01-05T13:07:11.380Z,7.03
2023-01-05T13:11:28.578Z,15.37
2023-01-05T13:15:50.432Z,13.97
2023-01-05T13:19:57.912Z,12.37
2023-01-05T13:24:26.146Z,11.93
2023-01-05T13:28:30.053Z,14.57
2023-01-05T13:32:58.779Z,11.53
2023-01-05T13:37:03.752Z,11.70
2023-01-05T13:41:32.787Z,8.50
2023-01-05T13:46:00.827Z,9.23
2023-01-05T13:50:25.163Z,10.70
2023-01-05T13:54:59.944Z,13.93
2023-01-05T13:58:51.194Z,8.23
2023-01-05T14:03:08.358Z,12.37
2023-01-05T14:07:13.340Z,12.33
2023-01-05T14:11:18.409Z,11.47
2023-01-05T14:15:36.813Z,8.97
2023-01-05T14:19:41.824Z,13.10
2023-01-05T14:23:46.812Z,7.93
2023-01-05T14:28:17.817Z,13.20
2023-01-05T14:32:29.415Z,8.53
2023-01-05T14:36:40.393Z,12.90
2023-01-05T14:40:44.851Z,9.37
2023-01-05T14:44:58.359Z,10.50
2023-01-05T14:49:05.983Z,11.03
2023-01-05T14:53:38.123Z,17.20
2023-01-05T14:57:48.613Z,11.80
2023-01-05T15:01:53.543Z,12.87
2023-01-05T15:06:01.508Z,11.40
2023-01-05T15:10:23.318Z,10.53
2023-01-05T15:14:40.625Z,15.47
2023-01-05T15:18:57.881Z,12.03
2023-01-05T15:23:02.775Z,14.47
2023-01-05T15:27:29.321Z,12.80
2023-01-05T15:31:47.475Z,17.30
2023-01-05T15:35:56.399Z,7.90
2023-01-05T15:40:03.433Z,15.93
2023-01-05T15:44:04.804Z,12.57
2023-01-05T15:48:10.428Z,16.60
2023-01-05T15:52:21.448Z,18.17
2023-01-05T15:56:26.134Z,13.03
2023-01-05T16:00:30.484Z,11.73
2023-01-05T16:04:31.647Z,9.47
2023-01-05T16:08:35.406Z,13.90
2023-01-05T16:12:36.784Z,12.30
2023-01-05T16:16:52.372Z,18.13
2023-01-05T16:20:47.293Z,17.57
2023-01-05T16:25:22.913Z,16.80
2023-01-05T16:29:39.831Z,13.90
2023-01-05T16:33:41.083Z,11.63
2023-01-05T16:37:42.282Z,12.90
2023-01-05T16:41:45.333Z,10.70
2023-01-05T16:45:46.860Z,15.23
2023-01-05T16:49:57.702Z,8.60
2023-01-05T16:53:56.140Z,15.40
2023-01-05T16:57:58.958Z,10.70
2023-01-05T17:02:00.828Z,11.33
2023-01-05T17:06:02.293Z,13.83
2023-01-05T17:10:05.362Z,14.07
2023-01-05T17:14:07.047Z,12.67
2023-01-05T17:22:22.261Z,14.10
2023-01-05T17:26:35.863Z,10.30
2023-01-05T17:30:37.167Z,13.50
2023-01-05T17:34:40.651Z,12.43
2023-01-05T17:38:41.884Z,11.17
2023-01-05T17:42:43.266Z,14.57
2023-01-05T17:46:46.858Z,14.57
2023-01-05T17:50:48.805Z,17.53
2023-01-05T17:54:50.176Z,6.93
2023-01-05T17:58:51.955Z,10.67
2023-01-05T18:02:54.025Z,9.77
2023-01-05T18:06:55.164Z,15.27
2023-01-05T18:10:58.128Z,16.23
2023-01-05T18:14:59.269Z,17.37
2023-01-05T18:19:00.436Z,13.40
2023-01-05T18:23:01.584Z,13.80
2023-01-05T18:27:04.650Z,16.47
2023-01-05T18:31:13.719Z,13.73
2023-01-05T18:35:15.048Z,15.10
2023-01-05T18:39:16.196Z,14.37
2023-01-05T18:43:17.411Z,15.33
2023-01-05T18:47:18.561Z,12.93
2023-01-05T18:51:19.753Z,16.43
2023-01-05T18:55:20.969Z,18.30
2023-01-05T18:59:22.131Z,15.40
2023-01-05T19:03:23.281Z,13.93
2023-01-05T19:07:24.450Z,12.77
2023-01-05T19:11:26.896Z,11.90
2023-01-05T19:15:28.083Z,20.50
2023-01-05T19:19:29.264Z,16.30
2023-01-05T19:23:30.435Z,13.37
2023-01-05T19:27:31.594Z,11.07
2023-01-05T19:31:33.775Z,15.17
2023-01-05T19:35:35.156Z,10.13
2023-01-05T19:39:36.371Z,18.63
2023-01-05T19:43:40.167Z,15.80
2023-01-05T19:47:42.402Z,14.40
2023-01-05T19:51:44.662Z,14.73
2023-01-05T19:55:45.877Z,15.83
2023-01-05T19:59:47.012Z,16.27
2023-01-05T20:03:49.035Z,11.13
2023-01-05T20:07:52.475Z,12.53
2023-01-05T20:11:59.525Z,13.23
2023-01-05T20:16:03.202Z,11.80
2023-01-05T20:20:04.775Z,12.73
2023-01-05T20:24:12.418Z,10.10
2023-01-05T20:28:13.567Z,10.30
2023-01-05T20:32:20.350Z,11.60
2023-01-05T20:36:23.071Z,10.80
2023-01-05T20:40:24.309Z,14.20
2023-01-05T20:44:26.228Z,10.17
2023-01-05T20:48:29.863Z,11.90
2023-01-05T20:52:31.161Z,20.10
2023-01-05T20:56:35.567Z,10.90
2023-01-05T21:01:11.177Z,11.47
2023-01-05T21:04:40.262Z,11.00
2023-01-05T21:08:44.639Z,12.60
2023-01-05T21:12:45.914Z,17.47
2023-01-05T21:16:52.159Z,8.40
2023-01-05T21:20:53.765Z,9.63
2023-01-05T21:24:54.948Z,10.33
2023-01-05T21:28:56.193Z,11.70
2023-01-05T21:32:57.397Z,9.30
2023-01-05T21:36:58.603Z,14.20
2023-01-05T21:41:04.826Z,9.13
2023-01-05T21:45:07.701Z,9.10
2023-01-05T21:49:10.192Z,16.87
2023-01-05T21:53:33.917Z,11.77
2023-01-05T21:57:35.710Z,9.37
2023-01-05T22:01:38.334Z,10.63
2023-01-05T22:05:39.580Z,7.50
2023-01-05T22:09:40.854Z,14.90
2023-01-05T22:13:42.096Z,10.47
2023-01-05T22:17:43.918Z,11.40
2023-01-05T22:21:45.109Z,8.03
2023-01-05T22:25:46.297Z,9.90
2023-01-05T22:29:47.494Z,7.47
2023-01-05T22:33:51.401Z,8.80
2023-01-05T22:37:52.677Z,9.70
2023-01-05T22:41:53.838Z,5.80
2023-01-05T22:46:00.424Z,7.50
2023-01-05T22:50:02.966Z,8.03
2023-01-05T22:54:04.473Z,6.13
2023-01-05T22:58:05.683Z,7.90
2023-01-05T23:02:07.175Z,5.80
2023-01-05T23:06:08.741Z,5.87
2023-01-05T23:10:09.947Z,6.50
2023-01-05T23:14:12.400Z,7.40
2023-01-05T23:18:13.607Z,9.00
2023-01-05T23:22:14.717Z,6.67
2023-01-05T23:26:16.021Z,6.77
2023-01-05T23:30:17.296Z,5.83
2023-01-05T23:34:18.565Z,4.63
2023-01-05T23:38:20.083Z,3.90
2023-01-05T23:42:39.950Z,6.47
2023-01-05T23:46:41.152Z,5.50
2023-01-05T23:50:44.301Z,6.00
2023-01-05T23:54:45.502Z,5.20
2023-01-05T23:58:47.513Z,4.60
